CPA867 CYVR-VHHH
Flight info
| Callsign | CPA867 |
|---|---|
| Flight time | N/A |
| Altitude | 30000 |
| Route | TREEL DCT UQQ DCT KATCH DCT HMPTN/N0483F320 DCT GRIZZ DCT CJAYY DCT 58N160W 57N170W DCT EDWAL DCT NATES/N0484F340 DCT NIKLL DCT NYMPH DCT NUZAN DCT NRKEY DCT NIPPI R220 NOGAL/N0482F350 R220 NANAC/N0484F360 R220 IXE Y88 SWING Y121 LABEL Y50 HKC A1 DRAKE/N0480F380 A1 ELATO V522 ABBEY |
| Aircraft | B77W/H-SDE1E2E3FGHIJ2J3J4J5M1RWXY/LB1D1 |
Departure
| Time | 2026-04-30 21:37 |
|---|---|
| Airport | Vancouver International Airport (CYVR) |
Arrival
| Time | N/A |
|---|---|
| Airport | Hong Kong International Airport (VHHH) |
| Time | Latitude | Longitude | Altitude | Speed | Heading |
|---|---|---|---|---|---|
| 2026-04-30 20:12 | 49.19941 | -123.18149 | 28 ft | 0 kts | 189° |
| 2026-04-30 21:18 | 49.19954 | -123.18145 | 35 ft | 4 kts | 189° |
| 2026-04-30 21:19 | 49.19975 | -123.18141 | 27 ft | 4 kts | 195° |
| 2026-04-30 21:19 | 49.19994 | -123.18127 | 26 ft | 4 kts | 229° |
| 2026-04-30 21:19 | 49.20003 | -123.18104 | 25 ft | 4 kts | 271° |
| 2026-04-30 21:19 | 49.20000 | -123.18067 | 25 ft | 4 kts | 279° |
| 2026-04-30 21:20 | 49.19996 | -123.18038 | 25 ft | 0 kts | 279° |
| 2026-04-30 21:22 | 49.19996 | -123.18039 | 25 ft | 0 kts | 279° |
| 2026-04-30 21:24 | 49.19996 | -123.18040 | 27 ft | 0 kts | 279° |
| 2026-04-30 21:24 | 49.19999 | -123.18059 | 27 ft | 4 kts | 279° |
| 2026-04-30 21:24 | 49.20005 | -123.18120 | 27 ft | 8 kts | 279° |
| 2026-04-30 21:24 | 49.20014 | -123.18197 | 27 ft | 8 kts | 279° |
| 2026-04-30 21:25 | 49.20032 | -123.18356 | 27 ft | 8 kts | 279° |
| 2026-04-30 21:25 | 49.20040 | -123.18435 | 27 ft | 8 kts | 279° |
| 2026-04-30 21:25 | 49.20035 | -123.18512 | 27 ft | 8 kts | 235° |
| 2026-04-30 21:26 | 49.19934 | -123.18551 | 27 ft | 8 kts | 188° |
| 2026-04-30 21:26 | 49.19881 | -123.18562 | 27 ft | 8 kts | 188° |
| 2026-04-30 21:27 | 49.19756 | -123.18596 | 27 ft | 10 kts | 201° |
| 2026-04-30 21:27 | 49.19696 | -123.18656 | 28 ft | 10 kts | 206° |
| 2026-04-30 21:27 | 49.19623 | -123.18683 | 28 ft | 11 kts | 191° |
| 2026-04-30 21:28 | 49.19462 | -123.18725 | 28 ft | 12 kts | 183° |
| 2026-04-30 21:28 | 49.19383 | -123.18690 | 28 ft | 12 kts | 168° |
| 2026-04-30 21:28 | 49.19220 | -123.18733 | 28 ft | 12 kts | 186° |
| 2026-04-30 21:29 | 49.19147 | -123.18681 | 28 ft | 12 kts | 144° |
| 2026-04-30 21:29 | 49.18956 | -123.18440 | 28 ft | 12 kts | 120° |
| 2026-04-30 21:30 | 49.18923 | -123.18192 | 28 ft | 12 kts | 99° |
| 2026-04-30 21:31 | 49.18883 | -123.17819 | 28 ft | 12 kts | 99° |
| 2026-04-30 21:31 | 49.18857 | -123.17569 | 28 ft | 12 kts | 99° |
| 2026-04-30 21:32 | 49.18827 | -123.17320 | 28 ft | 12 kts | 100° |
| 2026-04-30 21:32 | 49.18812 | -123.17196 | 28 ft | 12 kts | 100° |
| 2026-04-30 21:32 | 49.18798 | -123.17071 | 28 ft | 12 kts | 98° |
| 2026-04-30 21:32 | 49.18786 | -123.16946 | 28 ft | 12 kts | 99° |
| 2026-04-30 21:33 | 49.18772 | -123.16822 | 28 ft | 12 kts | 100° |
| 2026-04-30 21:33 | 49.18743 | -123.16572 | 28 ft | 12 kts | 100° |
| 2026-04-30 21:33 | 49.18728 | -123.16448 | 28 ft | 12 kts | 100° |
| 2026-04-30 21:34 | 49.18714 | -123.16338 | 28 ft | 10 kts | 106° |
| 2026-04-30 21:34 | 49.18641 | -123.16170 | 28 ft | 10 kts | 109° |
| 2026-04-30 21:34 | 49.18621 | -123.16075 | 28 ft | 9 kts | 114° |
| 2026-04-30 21:35 | 49.18574 | -123.16034 | 29 ft | 7 kts | 172° |
| 2026-04-30 21:35 | 49.18523 | -123.16037 | 30 ft | 7 kts | 187° |
| 2026-04-30 21:35 | 49.18481 | -123.16057 | 29 ft | 6 kts | 224° |
| 2026-04-30 21:35 | 49.18477 | -123.16120 | 29 ft | 6 kts | 275° |
| 2026-04-30 21:36 | 49.18479 | -123.16142 | 28 ft | 0 kts | 277° |
| 2026-04-30 21:37 | 49.18781 | -123.18798 | 27 ft | 178 kts | 279° |
| 2026-04-30 21:37 | 49.19004 | -123.20824 | 317 ft | 193 kts | 279° |
| 2026-04-30 21:37 | 49.19215 | -123.22841 | 977 ft | 194 kts | 280° |
| 2026-04-30 21:37 | 49.19447 | -123.24875 | 1484 ft | 198 kts | 281° |
| 2026-04-30 21:38 | 49.19734 | -123.26939 | 1853 ft | 201 kts | 289° |
| 2026-04-30 21:38 | 49.20255 | -123.28970 | 2160 ft | 208 kts | 293° |
| 2026-04-30 21:38 | 49.20837 | -123.31028 | 2531 ft | 212 kts | 293° |
| 2026-04-30 21:38 | 49.21426 | -123.33117 | 2952 ft | 215 kts | 292° |
| 2026-04-30 21:39 | 49.22020 | -123.35253 | 3251 ft | 226 kts | 292° |
| 2026-04-30 21:39 | 49.22434 | -123.36757 | 3362 ft | 237 kts | 292° |
| 2026-04-30 21:39 | 49.23317 | -123.39998 | 3788 ft | 254 kts | 291° |
| 2026-04-30 21:39 | 49.24002 | -123.42536 | 4102 ft | 266 kts | 291° |
| 2026-04-30 21:40 | 49.24715 | -123.45193 | 4616 ft | 272 kts | 291° |
| 2026-04-30 21:40 | 49.25203 | -123.47018 | 4997 ft | 275 kts | 291° |
| 2026-04-30 21:40 | 49.26169 | -123.50646 | 5789 ft | 279 kts | 290° |
| 2026-04-30 21:40 | 49.26652 | -123.52471 | 6208 ft | 280 kts | 290° |
| 2026-04-30 21:41 | 49.27387 | -123.55250 | 6796 ft | 282 kts | 290° |
| 2026-04-30 21:41 | 49.28126 | -123.58050 | 7383 ft | 284 kts | 290° |
| 2026-04-30 21:41 | 49.28870 | -123.60875 | 7969 ft | 287 kts | 290° |
| 2026-04-30 21:41 | 49.29620 | -123.63727 | 8545 ft | 289 kts | 290° |
| 2026-04-30 21:42 | 49.30372 | -123.66588 | 9122 ft | 291 kts | 290° |
| 2026-04-30 21:42 | 49.31129 | -123.69475 | 9684 ft | 293 kts | 289° |
| 2026-04-30 21:42 | 49.31890 | -123.72381 | 10231 ft | 296 kts | 289° |
| 2026-04-30 21:42 | 49.32676 | -123.75389 | 10429 ft | 313 kts | 289° |
| 2026-04-30 21:43 | 49.33506 | -123.78570 | 10582 ft | 331 kts | 289° |
| 2026-04-30 21:43 | 49.34383 | -123.81937 | 10722 ft | 349 kts | 290° |
| 2026-04-30 21:43 | 49.35308 | -123.85480 | 10965 ft | 365 kts | 290° |
| 2026-04-30 21:43 | 49.36371 | -123.89010 | 11409 ft | 374 kts | 296° |
| 2026-04-30 21:44 | 49.37611 | -123.92563 | 12018 ft | 379 kts | 296° |
| 2026-04-30 21:44 | 49.38886 | -123.96128 | 12749 ft | 382 kts | 297° |
| 2026-04-30 21:44 | 49.40171 | -123.99712 | 13515 ft | 384 kts | 297° |
| 2026-04-30 21:44 | 49.41462 | -124.03333 | 14204 ft | 388 kts | 296° |
| 2026-04-30 21:45 | 49.42755 | -124.06988 | 14781 ft | 392 kts | 296° |
| 2026-04-30 21:45 | 49.44061 | -124.10697 | 15341 ft | 397 kts | 296° |
| 2026-04-30 21:45 | 49.45377 | -124.14455 | 15937 ft | 402 kts | 295° |
| 2026-04-30 21:45 | 49.46707 | -124.18262 | 16529 ft | 406 kts | 295° |
| 2026-04-30 21:46 | 49.48048 | -124.22113 | 17115 ft | 410 kts | 295° |
| 2026-04-30 21:46 | 49.49401 | -124.26002 | 17700 ft | 415 kts | 295° |
| 2026-04-30 21:46 | 49.50766 | -124.29935 | 18275 ft | 419 kts | 295° |
| 2026-04-30 21:46 | 49.52145 | -124.33913 | 18809 ft | 423 kts | 295° |
| 2026-04-30 21:47 | 49.53531 | -124.37914 | 19419 ft | 423 kts | 295° |
| 2026-04-30 21:47 | 49.54914 | -124.41910 | 20086 ft | 422 kts | 295° |
| 2026-04-30 21:47 | 49.56295 | -124.45908 | 20717 ft | 422 kts | 295° |
| 2026-04-30 21:47 | 49.57676 | -124.49916 | 21278 ft | 424 kts | 295° |
| 2026-04-30 21:48 | 49.59056 | -124.53927 | 21853 ft | 425 kts | 295° |
| 2026-04-30 21:48 | 49.60444 | -124.57968 | 22409 ft | 427 kts | 296° |
| 2026-04-30 21:48 | 49.61820 | -124.61981 | 22972 ft | 428 kts | 296° |
| 2026-04-30 21:48 | 49.63213 | -124.66046 | 23517 ft | 429 kts | 296° |
| 2026-04-30 21:49 | 49.64609 | -124.70131 | 24006 ft | 431 kts | 296° |
| 2026-04-30 21:49 | 49.66012 | -124.74240 | 24403 ft | 433 kts | 296° |
| 2026-04-30 21:49 | 49.67421 | -124.78375 | 24794 ft | 436 kts | 296° |
| 2026-04-30 21:49 | 49.68836 | -124.82532 | 25185 ft | 438 kts | 296° |
| 2026-04-30 21:50 | 49.70257 | -124.86713 | 25581 ft | 440 kts | 296° |
| 2026-04-30 21:50 | 49.71790 | -124.90817 | 25979 ft | 443 kts | 301° |
| 2026-04-30 21:50 | 49.73586 | -124.94726 | 26362 ft | 446 kts | 304° |
| 2026-04-30 21:50 | 49.75438 | -124.98598 | 26738 ft | 449 kts | 304° |
| 2026-04-30 21:51 | 49.77282 | -125.02445 | 27098 ft | 451 kts | 304° |
| 2026-04-30 21:51 | 49.79152 | -125.06355 | 27458 ft | 453 kts | 304° |
| 2026-04-30 21:51 | 49.81024 | -125.10291 | 27818 ft | 455 kts | 304° |
| 2026-04-30 21:51 | 49.82899 | -125.14251 | 28150 ft | 457 kts | 304° |
| 2026-04-30 21:52 | 49.84777 | -125.18234 | 28485 ft | 459 kts | 304° |
| 2026-04-30 21:52 | 49.86662 | -125.22244 | 28784 ft | 461 kts | 304° |
| 2026-04-30 21:52 | 49.88551 | -125.26273 | 29094 ft | 462 kts | 304° |
| 2026-04-30 21:52 | 49.90447 | -125.30325 | 29382 ft | 464 kts | 303° |
| 2026-04-30 21:53 | 49.92344 | -125.34387 | 29675 ft | 466 kts | 303° |
| 2026-04-30 21:53 | 49.94218 | -125.38403 | 30020 ft | 465 kts | 303° |
| 2026-04-30 21:53 | 49.96123 | -125.42492 | 30157 ft | 469 kts | 303° |
| 2026-04-30 21:53 | 49.98036 | -125.46602 | 30186 ft | 468 kts | 303° |
| 2026-04-30 21:54 | 50.01829 | -125.54771 | 30184 ft | 463 kts | 303° |
| 2026-04-30 21:54 | 50.05592 | -125.62902 | 30192 ft | 463 kts | 303° |
| 2026-04-30 21:55 | 50.09354 | -125.71058 | 30177 ft | 463 kts | 303° |
| 2026-04-30 21:55 | 50.13108 | -125.79221 | 30195 ft | 463 kts | 303° |
| 2026-04-30 21:56 | 50.16838 | -125.87357 | 30181 ft | 465 kts | 303° |
| 2026-04-30 21:56 | 50.20598 | -125.95584 | 30191 ft | 465 kts | 303° |
| 2026-04-30 21:57 | 50.24355 | -126.03829 | 30184 ft | 466 kts | 302° |
| 2026-04-30 21:57 | 50.28105 | -126.12087 | 30208 ft | 466 kts | 302° |
| 2026-04-30 21:58 | 50.31856 | -126.20365 | 30181 ft | 465 kts | 302° |
| 2026-04-30 21:58 | 50.35584 | -126.28627 | 30200 ft | 464 kts | 302° |
| 2026-04-30 21:59 | 50.39303 | -126.36897 | 30201 ft | 464 kts | 302° |
| 2026-04-30 22:00 | 50.44845 | -126.49266 | 30206 ft | 464 kts | 302° |
| 2026-04-30 22:00 | 50.50407 | -126.61727 | 30199 ft | 463 kts | 301° |
| 2026-04-30 22:01 | 50.54096 | -126.70030 | 30234 ft | 463 kts | 301° |
| 2026-04-30 22:01 | 50.57773 | -126.78335 | 30246 ft | 463 kts | 301° |
| 2026-04-30 22:02 | 50.61446 | -126.86658 | 30230 ft | 463 kts | 301° |
| 2026-04-30 22:02 | 50.65096 | -126.94949 | 30237 ft | 463 kts | 301° |
| 2026-04-30 22:03 | 50.68764 | -127.03310 | 30238 ft | 464 kts | 301° |
| 2026-04-30 22:03 | 50.72427 | -127.11686 | 30238 ft | 464 kts | 301° |
| 2026-04-30 22:04 | 50.76084 | -127.20075 | 30239 ft | 464 kts | 301° |
| 2026-04-30 22:05 | 50.81559 | -127.32685 | 30235 ft | 463 kts | 301° |
| 2026-04-30 22:05 | 50.85197 | -127.41099 | 30239 ft | 463 kts | 300° |
| 2026-04-30 22:06 | 50.88825 | -127.49514 | 30241 ft | 462 kts | 300° |
| 2026-04-30 22:06 | 50.94223 | -127.62090 | 30242 ft | 461 kts | 300° |
| 2026-04-30 22:07 | 50.97824 | -127.70511 | 30246 ft | 460 kts | 300° |
| 2026-04-30 22:07 | 51.01409 | -127.78922 | 30242 ft | 460 kts | 300° |
| 2026-04-30 22:08 | 51.04983 | -127.87337 | 30244 ft | 459 kts | 300° |
| 2026-04-30 22:08 | 51.08551 | -127.95763 | 30239 ft | 459 kts | 300° |
| 2026-04-30 22:09 | 51.12110 | -128.04195 | 30245 ft | 459 kts | 300° |
| 2026-04-30 22:09 | 51.15639 | -128.12582 | 30242 ft | 458 kts | 300° |
| 2026-04-30 22:10 | 51.19185 | -128.21038 | 30250 ft | 458 kts | 300° |
| 2026-04-30 22:10 | 51.22713 | -128.29481 | 30256 ft | 457 kts | 300° |
| 2026-04-30 22:11 | 51.27990 | -128.42155 | 30252 ft | 456 kts | 300° |
| 2026-04-30 22:12 | 51.31492 | -128.50603 | 30250 ft | 456 kts | 300° |
| 2026-04-30 22:12 | 51.34993 | -128.59075 | 30251 ft | 455 kts | 299° |
| 2026-04-30 22:13 | 51.38475 | -128.67529 | 30250 ft | 455 kts | 299° |
| 2026-04-30 22:13 | 51.41929 | -128.75942 | 30261 ft | 455 kts | 299° |
| 2026-04-30 22:14 | 51.45416 | -128.84465 | 30250 ft | 454 kts | 299° |
| 2026-04-30 22:14 | 51.48855 | -128.92897 | 30263 ft | 454 kts | 299° |
| 2026-04-30 22:15 | 51.52314 | -129.01405 | 30252 ft | 454 kts | 299° |
| 2026-04-30 22:15 | 51.55763 | -129.09918 | 30261 ft | 455 kts | 299° |
| 2026-04-30 22:16 | 51.59210 | -129.18453 | 30258 ft | 455 kts | 299° |
| 2026-04-30 22:17 | 51.66087 | -129.35567 | 30258 ft | 455 kts | 298° |
| 2026-04-30 22:17 | 51.71202 | -129.48368 | 30264 ft | 455 kts | 298° |
| 2026-04-30 22:18 | 51.76321 | -129.61246 | 30268 ft | 454 kts | 298° |
| 2026-04-30 22:19 | 51.81417 | -129.74129 | 30269 ft | 453 kts | 298° |
| 2026-04-30 22:20 | 51.86500 | -129.87044 | 30257 ft | 453 kts | 298° |
| 2026-04-30 22:20 | 51.91545 | -129.99930 | 30266 ft | 454 kts | 298° |
| 2026-04-30 22:21 | 51.94914 | -130.08570 | 30269 ft | 454 kts | 298° |
| 2026-04-30 22:21 | 51.98284 | -130.17242 | 30266 ft | 454 kts | 298° |
| 2026-04-30 22:22 | 52.01647 | -130.25928 | 30268 ft | 455 kts | 298° |
| 2026-04-30 22:22 | 52.05018 | -130.34660 | 30268 ft | 455 kts | 298° |
| 2026-04-30 22:23 | 52.08356 | -130.43338 | 30269 ft | 456 kts | 298° |
| 2026-04-30 22:23 | 52.11716 | -130.52103 | 30268 ft | 456 kts | 298° |
| 2026-04-30 22:24 | 52.15069 | -130.60880 | 30267 ft | 457 kts | 298° |
| 2026-04-30 22:24 | 52.18423 | -130.69691 | 30266 ft | 457 kts | 297° |
| 2026-04-30 22:25 | 52.21769 | -130.78512 | 30268 ft | 458 kts | 297° |
| 2026-04-30 22:25 | 52.25094 | -130.87304 | 30267 ft | 459 kts | 297° |
| 2026-04-30 22:26 | 52.30113 | -131.00638 | 30268 ft | 460 kts | 297° |
| 2026-04-30 22:27 | 52.33457 | -131.09560 | 30261 ft | 460 kts | 297° |
| 2026-04-30 22:27 | 52.38472 | -131.23001 | 30267 ft | 461 kts | 297° |
| 2026-04-30 22:28 | 52.42919 | -131.34978 | 30277 ft | 462 kts | 297° |
| 2026-04-30 22:29 | 52.49569 | -131.52999 | 30271 ft | 463 kts | 297° |
| 2026-04-30 22:31 | 52.61214 | -131.84868 | 30281 ft | 467 kts | 297° |
| 2026-04-30 22:32 | 52.69558 | -132.07949 | 30264 ft | 470 kts | 296° |
| 2026-04-30 22:33 | 52.77875 | -132.31170 | 30280 ft | 471 kts | 296° |
| 2026-04-30 22:35 | 52.86179 | -132.54575 | 30267 ft | 473 kts | 296° |
| 2026-04-30 22:36 | 52.94461 | -132.78137 | 30267 ft | 475 kts | 296° |
| 2026-04-30 22:37 | 53.01083 | -132.97137 | 30271 ft | 476 kts | 295° |
| 2026-04-30 22:38 | 53.07682 | -133.16217 | 30270 ft | 476 kts | 295° |
| 2026-04-30 22:39 | 53.12609 | -133.30562 | 30258 ft | 476 kts | 295° |
| 2026-04-30 22:40 | 53.22420 | -133.59371 | 30266 ft | 477 kts | 295° |
| 2026-04-30 22:41 | 53.30540 | -133.83475 | 30259 ft | 478 kts | 295° |
| 2026-04-30 22:43 | 53.40285 | -134.12722 | 30502 ft | 476 kts | 298° |
| 2026-04-30 22:43 | 53.43379 | -134.22077 | 30289 ft | 446 kts | 298° |
| 2026-04-30 22:44 | 53.46357 | -134.31110 | 30311 ft | 446 kts | 298° |
| 2026-04-30 22:45 | 53.52402 | -134.49566 | 31312 ft | 450 kts | 297° |
| 2026-04-30 22:45 | 53.55400 | -134.58769 | 31912 ft | 448 kts | 297° |
| 2026-04-30 22:46 | 53.58380 | -134.67954 | 32197 ft | 452 kts | 297° |
| 2026-04-30 22:47 | 53.64345 | -134.86440 | 32248 ft | 446 kts | 297° |
| 2026-04-30 22:48 | 53.70226 | -135.04807 | 32242 ft | 446 kts | 297° |
| 2026-04-30 22:49 | 53.79053 | -135.32637 | 32240 ft | 449 kts | 297° |